createdAt,value
2022-12-01T00:01:07.197Z,2.20
2022-12-01T00:03:35.059Z,1.50
2022-12-01T00:06:21.814Z,2.00
2022-12-01T00:09:09.350Z,1.27
2022-12-01T00:11:37.886Z,2.10
2022-12-01T00:14:05.732Z,2.40
2022-12-01T00:16:33.062Z,2.17
2022-12-01T00:19:00.081Z,2.65
2022-12-01T00:21:27.476Z,1.80
2022-12-01T00:23:56.621Z,2.15
2022-12-01T00:26:24.025Z,2.20
2022-12-01T00:28:56.198Z,1.85
2022-12-01T00:31:23.428Z,1.85
2022-12-01T00:33:50.534Z,1.90
2022-12-01T00:36:17.305Z,2.25
2022-12-01T00:38:44.074Z,2.80
2022-12-01T00:41:11.187Z,2.60
2022-12-01T00:43:37.892Z,3.17
2022-12-01T00:46:04.794Z,2.92
2022-12-01T00:48:31.560Z,2.15
2022-12-01T00:50:58.421Z,2.83
2022-12-01T00:53:25.206Z,2.92
2022-12-01T00:55:54.124Z,2.05
2022-12-01T00:58:21.707Z,2.53
2022-12-01T01:00:59.451Z,3.97
2022-12-01T01:03:26.943Z,3.47
2022-12-01T01:05:53.784Z,4.05
2022-12-01T01:08:20.868Z,4.28
2022-12-01T01:10:48.395Z,4.50
2022-12-01T01:13:15.513Z,5.90
2022-12-01T01:15:42.470Z,4.40
2022-12-01T01:18:11.612Z,3.88
2022-12-01T01:20:38.356Z,3.75
2022-12-01T01:23:05.130Z,5.47
2022-12-01T01:25:32.883Z,4.70
2022-12-01T01:27:59.716Z,5.65
2022-12-01T01:30:41.722Z,4.55
2022-12-01T01:33:08.559Z,4.80
2022-12-01T01:35:35.461Z,8.00
2022-12-01T01:38:02.253Z,5.60
2022-12-01T01:40:28.956Z,6.22
2022-12-01T01:42:55.672Z,6.25
2022-12-01T01:45:29.710Z,6.43
2022-12-01T01:47:59.808Z,6.53
2022-12-01T01:50:28.836Z,6.03
2022-12-01T01:53:01.295Z,6.72
2022-12-01T01:55:30.235Z,5.43
2022-12-01T01:57:57.345Z,5.35
2022-12-01T02:00:24.319Z,6.18
2022-12-01T02:02:51.867Z,6.28
2022-12-01T02:05:27.536Z,6.03
2022-12-01T02:07:57.920Z,5.43
2022-12-01T02:10:46.997Z,4.80
2022-12-01T02:13:22.696Z,4.88
2022-12-01T02:15:58.272Z,5.13
2022-12-01T02:18:56.993Z,6.57
2022-12-01T02:21:51.475Z,5.50
2022-12-01T02:24:49.019Z,6.80
2022-12-01T02:27:39.873Z,6.50
2022-12-01T02:30:17.981Z,5.43
2022-12-01T02:32:47.426Z,7.95
2022-12-01T02:35:24.540Z,7.03
2022-12-01T02:38:08.118Z,7.03
2022-12-01T02:40:51.471Z,7.25
2022-12-01T02:43:36.381Z,8.43
2022-12-01T02:46:15.868Z,8.43
2022-12-01T02:48:46.586Z,8.55
2022-12-01T02:51:21.906Z,7.70
2022-12-01T02:53:49.320Z,8.07
2022-12-01T02:56:21.391Z,8.18
2022-12-01T02:58:48.159Z,7.60
2022-12-01T03:01:43.018Z,6.95
2022-12-01T03:04:28.496Z,7.93
2022-12-01T03:07:10.929Z,8.80
2022-12-01T03:09:58.631Z,9.52
2022-12-01T03:12:44.420Z,7.53
2022-12-01T03:15:18.800Z,8.15
2022-12-01T03:17:54.693Z,8.60
2022-12-01T03:20:40.014Z,8.50
2022-12-01T03:23:15.271Z,8.38
2022-12-01T03:25:46.650Z,9.82
2022-12-01T03:30:54.992Z,8.95
2022-12-01T03:33:29.449Z,9.20
2022-12-01T03:36:02.002Z,10.05
2022-12-01T03:38:30.420Z,10.40
2022-12-01T03:41:01.681Z,8.68
2022-12-01T03:43:33.896Z,10.52
2022-12-01T03:46:00.686Z,9.98
2022-12-01T03:48:28.264Z,11.55
2022-12-01T03:51:16.459Z,9.60
2022-12-01T03:53:49.710Z,11.90
2022-12-01T03:56:21.342Z,12.23
2022-12-01T03:58:51.448Z,12.27
2022-12-01T04:01:18.651Z,12.45
2022-12-01T04:03:46.010Z,12.15
2022-12-01T04:06:12.830Z,11.32
2022-12-01T04:08:39.865Z,11.57
2022-12-01T04:11:32.173Z,12.02
2022-12-01T04:13:59.750Z,11.80
2022-12-01T04:16:26.567Z,11.95
2022-12-01T04:18:53.292Z,12.35
2022-12-01T04:21:20.101Z,11.43
2022-12-01T04:24:01.680Z,13.38
2022-12-01T04:26:30.710Z,12.27
2022-12-01T04:28:57.407Z,13.98
2022-12-01T04:31:24.247Z,12.80
2022-12-01T04:33:51.188Z,12.45
2022-12-01T04:36:17.950Z,13.15
2022-12-01T04:38:44.721Z,13.75
2022-12-01T04:41:12.659Z,11.70
2022-12-01T04:43:39.445Z,13.00
2022-12-01T04:46:07.020Z,14.05
2022-12-01T04:48:37.889Z,14.65
2022-12-01T04:51:09.114Z,11.35
2022-12-01T04:53:36.567Z,13.80
2022-12-01T04:56:04.234Z,12.07
2022-12-01T04:58:37.222Z,13.95
2022-12-01T05:01:10.309Z,12.23
2022-12-01T05:03:38.767Z,13.07
2022-12-01T05:06:09.500Z,12.38
2022-12-01T05:08:36.445Z,14.50
2022-12-01T05:11:03.770Z,12.00
2022-12-01T05:13:30.660Z,12.43
2022-12-01T05:16:07.703Z,11.63
2022-12-01T05:18:34.642Z,13.05
2022-12-01T05:21:03.964Z,14.52
2022-12-01T05:23:33.794Z,12.48
2022-12-01T05:26:01.560Z,12.35
2022-12-01T05:28:28.441Z,13.82
2022-12-01T05:30:55.830Z,12.30
2022-12-01T05:33:24.330Z,12.10
2022-12-01T05:35:51.546Z,11.43
2022-12-01T05:38:19.067Z,12.18
2022-12-01T05:40:54.169Z,9.45
2022-12-01T05:43:28.276Z,12.93
2022-12-01T05:45:56.364Z,11.13
2022-12-01T05:48:23.543Z,11.77
2022-12-01T05:50:50.423Z,10.30
2022-12-01T05:53:18.509Z,10.93
2022-12-01T05:55:45.400Z,8.55
2022-12-01T05:58:12.714Z,7.28
2022-12-01T06:00:45.575Z,6.57
2022-12-01T06:03:13.386Z,3.60
2022-12-01T06:05:40.832Z,3.42
2022-12-01T06:08:07.979Z,3.25
2022-12-01T06:10:34.777Z,2.80
2022-12-01T06:13:01.528Z,2.35
2022-12-01T06:15:28.610Z,7.57
2022-12-01T06:17:58.601Z,3.58
2022-12-01T06:20:25.852Z,3.63
2022-12-01T06:22:52.703Z,3.45
2022-12-01T06:25:19.518Z,3.22
2022-12-01T06:27:46.235Z,9.60
2022-12-01T06:30:13.375Z,5.28
2022-12-01T06:32:40.060Z,6.63
2022-12-01T06:35:07.577Z,6.95
2022-12-01T06:37:34.270Z,6.50
2022-12-01T06:40:01.025Z,6.32
2022-12-01T06:42:30.663Z,5.15
2022-12-01T06:44:57.395Z,4.47
2022-12-01T06:47:24.075Z,5.10
2022-12-01T06:49:51.156Z,4.32
2022-12-01T06:52:18.158Z,3.13
2022-12-01T06:54:44.936Z,2.10
2022-12-01T06:57:12.002Z,3.10
2022-12-01T06:59:38.861Z,3.25
2022-12-01T07:02:05.853Z,3.25
2022-12-01T07:04:32.626Z,2.17
2022-12-01T07:06:59.436Z,7.65
2022-12-01T07:09:26.195Z,7.40
2022-12-01T07:11:52.929Z,3.72
2022-12-01T07:14:25.050Z,2.58
2022-12-01T07:16:52.011Z,2.55
2022-12-01T07:19:19.241Z,4.88
2022-12-01T07:21:46.175Z,4.28
2022-12-01T07:24:13.070Z,4.75
2022-12-01T07:26:41.265Z,8.70
2022-12-01T07:29:09.316Z,5.85
2022-12-01T07:31:37.157Z,7.57
2022-12-01T07:34:04.493Z,7.25
2022-12-01T07:36:33.158Z,9.70
2022-12-01T07:38:59.894Z,7.63
2022-12-01T07:41:26.659Z,8.00
2022-12-01T07:43:55.249Z,7.38
2022-12-01T07:46:25.920Z,7.63
2022-12-01T07:48:54.374Z,8.18
2022-12-01T07:51:22.630Z,7.60
2022-12-01T07:53:51.300Z,7.15
2022-12-01T07:56:19.774Z,6.85
2022-12-01T07:58:47.083Z,6.85
2022-12-01T08:01:20.551Z,7.22
2022-12-01T08:03:51.952Z,8.00
2022-12-01T08:08:46.702Z,8.20
2022-12-01T08:11:21.586Z,8.45
2022-12-01T08:13:48.949Z,9.45
2022-12-01T08:16:19.435Z,8.82
2022-12-01T08:18:46.840Z,7.47
2022-12-01T08:21:18.031Z,7.13
2022-12-01T08:23:45.094Z,7.65
2022-12-01T08:26:17.615Z,7.97
2022-12-01T08:28:45.688Z,6.95
2022-12-01T08:31:17.370Z,7.50
2022-12-01T08:33:44.411Z,7.55
2022-12-01T08:36:11.619Z,6.60
2022-12-01T08:38:38.663Z,8.30
2022-12-01T08:41:08.918Z,7.35
2022-12-01T08:44:00.342Z,8.52
2022-12-01T08:46:33.063Z,6.70
2022-12-01T08:49:01.596Z,9.60
2022-12-01T08:51:28.932Z,11.07
2022-12-01T08:53:57.576Z,7.80
2022-12-01T08:56:28.726Z,7.25
2022-12-01T08:58:55.782Z,9.00
2022-12-01T09:01:23.180Z,8.02
2022-12-01T09:04:05.467Z,8.77
2022-12-01T09:06:38.422Z,7.20
2022-12-01T09:09:05.365Z,7.20
2022-12-01T09:11:32.357Z,8.15
2022-12-01T09:13:59.998Z,8.00
2022-12-01T09:16:27.024Z,7.13
2022-12-01T09:18:55.490Z,8.07
2022-12-01T09:21:31.115Z,6.28
2022-12-01T09:23:59.023Z,7.45
2022-12-01T09:26:25.829Z,7.45
2022-12-01T09:28:54.928Z,7.32
2022-12-01T09:31:25.600Z,8.20
2022-12-01T09:33:56.807Z,7.88
2022-12-01T09:36:23.611Z,7.82
2022-12-01T09:38:50.566Z,7.55
2022-12-01T09:41:26.407Z,8.05
2022-12-01T09:44:06.008Z,7.82
2022-12-01T09:46:41.303Z,8.20
2022-12-01T09:49:17.564Z,7.43
2022-12-01T09:51:44.627Z,6.15
2022-12-01T09:54:14.494Z,7.65
2022-12-01T09:56:53.350Z,9.25
2022-12-01T09:59:23.739Z,6.95
2022-12-01T10:02:02.349Z,7.17
2022-12-01T10:04:42.833Z,7.50
2022-12-01T10:07:40.095Z,8.18
2022-12-01T10:10:30.238Z,7.80
2022-12-01T10:12:57.317Z,7.45
2022-12-01T10:15:54.888Z,7.60
2022-12-01T10:18:37.802Z,8.40
2022-12-01T10:21:29.026Z,7.68
2022-12-01T10:24:14.704Z,7.78
2022-12-01T10:26:51.672Z,7.03
2022-12-01T10:29:48.147Z,7.68
2022-12-01T10:32:32.757Z,8.20
2022-12-01T10:34:59.623Z,7.45
2022-12-01T10:37:29.126Z,7.38
2022-12-01T10:39:58.119Z,7.63
2022-12-01T10:42:24.745Z,8.30
2022-12-01T10:44:54.839Z,7.55
2022-12-01T10:47:24.362Z,7.90
2022-12-01T10:49:52.084Z,7.50
2022-12-01T10:52:30.948Z,7.22
2022-12-01T10:54:57.703Z,7.55
2022-12-01T10:57:26.842Z,7.10
2022-12-01T11:00:00.723Z,6.68
2022-12-01T11:02:29.948Z,6.25
2022-12-01T11:05:02.821Z,5.18
2022-12-01T11:07:33.638Z,6.00
2022-12-01T11:10:25.984Z,7.05
2022-12-01T11:12:54.224Z,5.70
2022-12-01T11:15:24.726Z,4.88
2022-12-01T11:18:05.041Z,4.80
2022-12-01T11:20:34.345Z,4.70
2022-12-01T11:23:10.269Z,4.15
2022-12-01T11:25:37.178Z,4.25
2022-12-01T11:28:04.714Z,3.85
2022-12-01T11:30:32.845Z,4.30
2022-12-01T11:33:02.802Z,3.30
2022-12-01T11:40:56.254Z,3.47
2022-12-01T11:43:30.757Z,3.38
2022-12-01T11:46:01.784Z,2.70
2022-12-01T11:48:30.964Z,3.00
2022-12-01T11:51:20.389Z,3.22
2022-12-01T11:53:47.519Z,2.75
2022-12-01T11:56:23.621Z,2.20
2022-12-01T11:58:55.476Z,1.80
2022-12-01T12:01:40.184Z,2.30
2022-12-01T12:04:09.926Z,1.60
2022-12-01T12:07:07.862Z,1.80
2022-12-01T12:09:53.329Z,1.30
2022-12-01T12:12:57.145Z,1.52
2022-12-01T12:15:45.651Z,1.60
2022-12-01T12:18:51.230Z,1.90
2022-12-01T12:21:27.005Z,1.70
2022-12-01T12:24:15.225Z,1.65
2022-12-01T12:26:52.824Z,1.52
2022-12-01T12:29:38.375Z,1.10
2022-12-01T12:32:23.431Z,1.27
2022-12-01T12:35:06.294Z,1.17
2022-12-01T12:37:54.892Z,1.30
2022-12-01T12:40:42.701Z,1.50
2022-12-01T12:43:21.571Z,1.17
2022-12-01T12:46:08.637Z,1.33
2022-12-01T12:52:08.505Z,1.13
2022-12-01T12:54:50.895Z,1.52
2022-12-01T12:57:35.311Z,2.00
2022-12-01T13:00:05.304Z,1.98
2022-12-01T13:02:40.930Z,1.58
2022-12-01T13:05:22.598Z,2.05
2022-12-01T13:07:52.347Z,2.78
2022-12-01T13:10:25.106Z,2.10
2022-12-01T13:12:59.585Z,2.33
2022-12-01T13:15:28.926Z,2.92
2022-12-01T13:18:04.726Z,2.95
2022-12-01T13:20:35.108Z,3.28
2022-12-01T13:23:02.675Z,2.53
2022-12-01T13:25:40.357Z,3.03
2022-12-01T13:28:23.965Z,3.10
2022-12-01T13:31:11.502Z,3.17
2022-12-01T13:33:54.843Z,2.35
2022-12-01T13:36:45.893Z,2.50
2022-12-01T13:39:20.817Z,2.13
2022-12-01T13:41:58.941Z,2.55
2022-12-01T13:44:30.997Z,2.90
2022-12-01T13:47:12.447Z,3.15
2022-12-01T13:52:21.779Z,3.83
2022-12-01T13:55:09.955Z,3.00
2022-12-01T13:57:43.101Z,3.30
2022-12-01T14:00:34.779Z,3.33
2022-12-01T14:03:16.703Z,2.90
2022-12-01T14:05:47.929Z,3.42
2022-12-01T14:08:46.121Z,4.07
2022-12-01T14:11:27.667Z,3.80
2022-12-01T14:14:00.344Z,3.22
2022-12-01T14:16:45.692Z,3.60
2022-12-01T14:19:32.553Z,4.25
2022-12-01T14:22:01.253Z,4.22
2022-12-01T14:24:33.592Z,3.67
2022-12-01T14:27:00.478Z,4.25
2022-12-01T14:29:45.427Z,4.05
2022-12-01T14:32:20.369Z,3.25
2022-12-01T14:34:51.998Z,3.65
2022-12-01T14:37:21.764Z,3.42
2022-12-01T14:40:06.024Z,3.10
2022-12-01T14:43:00.515Z,3.85
2022-12-01T14:45:46.143Z,3.83
2022-12-01T14:48:26.298Z,3.20
2022-12-01T14:51:14.716Z,3.58
2022-12-01T14:53:46.101Z,3.90
2022-12-01T14:56:19.881Z,4.20
2022-12-01T14:59:02.586Z,3.65
2022-12-01T15:01:40.950Z,3.35
2022-12-01T15:04:17.320Z,3.65
2022-12-01T15:06:46.087Z,4.38
2022-12-01T15:09:36.634Z,3.58
2022-12-01T15:12:09.112Z,4.60
2022-12-01T15:14:47.963Z,4.60
2022-12-01T15:17:33.116Z,4.15
2022-12-01T15:20:01.020Z,4.75
2022-12-01T15:22:31.371Z,4.72
2022-12-01T15:25:13.302Z,4.80
2022-12-01T15:27:41.640Z,4.53
2022-12-01T15:30:14.288Z,4.88
2022-12-01T15:32:45.950Z,4.43
2022-12-01T15:35:20.354Z,4.95
2022-12-01T15:37:47.262Z,5.20
2022-12-01T15:43:24.447Z,5.10
2022-12-01T15:45:57.432Z,5.68
2022-12-01T15:48:33.457Z,11.40
2022-12-01T15:51:25.685Z,7.15
2022-12-01T15:53:54.095Z,4.90
2022-12-01T15:56:27.438Z,5.93
2022-12-01T15:58:58.496Z,7.53
2022-12-01T16:01:30.514Z,6.93
2022-12-01T16:04:05.608Z,7.50
2022-12-01T16:06:39.385Z,5.43
2022-12-01T16:09:20.505Z,6.93
2022-12-01T16:12:27.620Z,10.68
2022-12-01T16:15:00.413Z,6.32
2022-12-01T16:17:51.411Z,5.78
2022-12-01T16:20:23.587Z,6.13
2022-12-01T16:22:56.740Z,7.20
2022-12-01T16:25:32.797Z,5.97
2022-12-01T16:28:00.417Z,5.90
2022-12-01T16:30:34.990Z,5.68
2022-12-01T16:33:23.538Z,6.10
2022-12-01T16:35:51.011Z,7.20
2022-12-01T16:38:24.552Z,7.38
2022-12-01T16:40:57.185Z,5.80
2022-12-01T16:43:25.469Z,7.28
2022-12-01T16:46:04.017Z,7.28
2022-12-01T16:48:31.643Z,8.27
2022-12-01T16:51:03.559Z,8.88
2022-12-01T16:53:30.451Z,8.05
2022-12-01T16:55:59.751Z,8.95
2022-12-01T16:58:26.724Z,11.15
2022-12-01T17:00:53.557Z,9.50
2022-12-01T17:03:23.051Z,8.27
2022-12-01T17:05:51.029Z,9.23
2022-12-01T17:08:19.007Z,8.48
2022-12-01T17:10:50.342Z,7.80
2022-12-01T17:13:18.775Z,5.25
2022-12-01T17:15:48.372Z,9.55
2022-12-01T17:18:16.594Z,8.75
2022-12-01T17:20:43.566Z,7.97
2022-12-01T17:23:10.703Z,8.40
2022-12-01T17:25:41.884Z,8.93
2022-12-01T17:28:08.675Z,8.20
2022-12-01T17:30:36.961Z,9.52
2022-12-01T17:33:04.223Z,8.80
2022-12-01T17:35:30.922Z,8.43
2022-12-01T17:37:57.752Z,8.82
2022-12-01T17:40:24.462Z,8.55
2022-12-01T17:42:51.325Z,9.23
2022-12-01T17:45:18.954Z,7.82
2022-12-01T17:47:46.043Z,8.50
2022-12-01T17:50:12.689Z,9.88
2022-12-01T17:52:39.605Z,8.43
2022-12-01T17:55:07.392Z,7.22
2022-12-01T17:57:34.884Z,7.25
2022-12-01T18:00:02.433Z,6.70
2022-12-01T18:02:35.540Z,7.20
2022-12-01T18:05:02.476Z,5.85
2022-12-01T18:07:29.336Z,6.07
2022-12-01T18:09:56.130Z,6.70
2022-12-01T18:12:22.876Z,7.15
2022-12-01T18:14:49.818Z,9.43
2022-12-01T18:17:16.809Z,7.13
2022-12-01T18:19:43.609Z,8.05
2022-12-01T18:22:10.353Z,6.43
2022-12-01T18:24:37.159Z,9.60
2022-12-01T18:27:04.031Z,7.85
2022-12-01T18:29:30.673Z,6.80
2022-12-01T18:31:59.850Z,10.20
2022-12-01T18:34:29.521Z,9.38
2022-12-01T18:36:56.891Z,9.05
2022-12-01T18:39:23.607Z,7.43
2022-12-01T18:41:50.516Z,7.50
2022-12-01T18:44:17.290Z,7.18
2022-12-01T18:46:44.192Z,9.82
2022-12-01T18:49:11.998Z,8.18
2022-12-01T18:51:39.820Z,8.07
2022-12-01T18:54:08.475Z,8.40
2022-12-01T18:56:35.536Z,8.95
2022-12-01T18:59:07.255Z,8.13
2022-12-01T19:01:36.854Z,8.70
2022-12-01T19:04:05.096Z,8.02
2022-12-01T19:06:33.805Z,7.35
2022-12-01T19:09:02.729Z,6.75
2022-12-01T19:11:30.442Z,7.28
2022-12-01T19:13:57.790Z,6.72
2022-12-01T19:16:24.879Z,7.43
2022-12-01T19:18:53.119Z,7.18
2022-12-01T19:21:20.733Z,7.57
2022-12-01T19:23:48.016Z,6.97
2022-12-01T19:26:19.416Z,7.32
2022-12-01T19:28:47.004Z,7.35
2022-12-01T19:31:22.982Z,8.02
2022-12-01T19:33:50.571Z,8.18
2022-12-01T19:36:20.837Z,8.00
2022-12-01T19:38:48.107Z,8.87
2022-12-01T19:41:15.887Z,8.30
2022-12-01T19:43:43.150Z,8.25
2022-12-01T19:46:15.746Z,9.60
2022-12-01T19:48:44.845Z,8.35
2022-12-01T19:51:23.892Z,7.43
2022-12-01T19:53:51.452Z,8.23
2022-12-01T19:56:18.552Z,9.20
2022-12-01T19:58:45.356Z,9.60
2022-12-01T20:01:13.940Z,8.60
2022-12-01T20:03:44.463Z,10.02
2022-12-01T20:06:16.094Z,12.65
2022-12-01T20:08:43.800Z,9.05
2022-12-01T20:11:10.849Z,8.00
2022-12-01T20:13:39.992Z,7.65
2022-12-01T20:16:10.264Z,6.28
2022-12-01T20:18:38.037Z,7.50
2022-12-01T20:21:17.398Z,6.90
2022-12-01T20:23:46.220Z,6.47
2022-12-01T20:26:13.759Z,6.53
2022-12-01T20:28:41.003Z,8.02
2022-12-01T20:31:14.612Z,7.60
2022-12-01T20:33:42.246Z,7.32
2022-12-01T20:36:09.669Z,7.88
2022-12-01T20:38:38.301Z,6.65
2022-12-01T20:41:06.530Z,5.85
2022-12-01T20:43:34.481Z,7.10
2022-12-01T20:46:02.275Z,5.30
2022-12-01T20:48:29.588Z,5.50
2022-12-01T20:50:56.338Z,5.47
2022-12-01T20:53:23.076Z,4.90
2022-12-01T20:55:49.860Z,4.72
2022-12-01T20:58:16.583Z,5.20
2022-12-01T21:00:46.474Z,5.13
2022-12-01T21:03:14.266Z,5.78
2022-12-01T21:05:44.365Z,7.13
2022-12-01T21:08:13.400Z,5.10
2022-12-01T21:10:43.772Z,5.90
2022-12-01T21:13:35.292Z,14.50
2022-12-01T21:18:47.871Z,6.15
2022-12-01T21:21:17.384Z,7.32
2022-12-01T21:23:44.175Z,6.07
2022-12-01T21:26:16.224Z,7.45
2022-12-01T21:28:44.469Z,5.60
2022-12-01T21:31:14.105Z,5.72
2022-12-01T21:33:42.154Z,6.55
2022-12-01T21:36:20.748Z,6.13
2022-12-01T21:38:51.162Z,11.57
2022-12-01T21:41:31.511Z,4.33
2022-12-01T21:44:07.664Z,6.75
2022-12-01T21:46:35.288Z,7.03
2022-12-01T21:49:02.734Z,7.10
2022-12-01T21:51:30.902Z,6.95
2022-12-01T21:53:58.086Z,10.45
2022-12-01T21:56:29.185Z,7.78
2022-12-01T21:59:02.409Z,8.05
2022-12-01T22:01:31.405Z,8.38
2022-12-01T22:04:05.960Z,9.32
2022-12-01T22:06:37.794Z,7.95
2022-12-01T22:09:22.474Z,7.55
2022-12-01T22:12:15.046Z,10.27
2022-12-01T22:14:41.803Z,9.23
2022-12-01T22:17:09.046Z,9.05
2022-12-01T22:19:44.121Z,8.55
2022-12-01T22:22:10.930Z,9.30
2022-12-01T22:24:39.978Z,11.50
2022-12-01T22:27:25.664Z,9.27
2022-12-01T22:29:57.315Z,9.32
2022-12-01T22:32:42.631Z,9.55
2022-12-01T22:35:31.504Z,10.38
2022-12-01T22:38:15.529Z,10.45
2022-12-01T22:40:47.997Z,10.15
2022-12-01T22:43:17.904Z,11.20
2022-12-01T22:45:50.199Z,13.50
2022-12-01T22:48:29.673Z,10.45
2022-12-01T22:51:07.623Z,10.95
2022-12-01T22:53:34.410Z,8.77
2022-12-01T22:56:01.522Z,8.80
2022-12-01T22:58:37.631Z,12.55
2022-12-01T23:01:39.194Z,9.80
2022-12-01T23:06:55.500Z,8.93
2022-12-01T23:09:26.391Z,10.40
2022-12-01T23:11:59.638Z,9.80
2022-12-01T23:14:27.908Z,10.13
2022-12-01T23:17:07.364Z,11.07
2022-12-01T23:19:34.776Z,12.52
2022-12-01T23:22:01.974Z,12.20
2022-12-01T23:24:33.750Z,12.50
2022-12-01T23:27:01.021Z,11.23
2022-12-01T23:29:28.024Z,10.48
2022-12-01T23:31:54.830Z,12.23
2022-12-01T23:34:24.643Z,10.38
2022-12-01T23:36:51.434Z,14.52
2022-12-01T23:39:29.104Z,12.65
2022-12-01T23:41:59.218Z,14.98
2022-12-01T23:44:45.613Z,13.45
2022-12-01T23:47:19.383Z,14.75
2022-12-01T23:49:51.025Z,11.90
2022-12-01T23:52:20.156Z,12.95
2022-12-01T23:54:48.498Z,13.80
2022-12-01T23:57:24.156Z,13.80
2022-12-01T23:59:54.911Z,14.23
